Overview Statistics Trail Chart Weather Telemetry Raw packets
 

This is the latest recevied weather packets stored in our database for station/object IONIA-WX. If no packets are shown the sender has not sent any weather packets the latest 10 day(s).

<< 18 19 20 21 22 23 24 >>
Time Temp. Humidity Pressure Rain* Wind** Luminosity Snow
1788198318 28.33° C 56% 984.7 hPa 0 mm - - -
1788197418 28.89° C 56% 984.8 hPa 0 mm - - -
1788196518 28.33° C 56% 984.8 hPa 0 mm - - -
1788195619 27.78° C 56% 984.8 hPa 0 mm - - -
1788194718 27.78° C 72% 986.5 hPa 0.25 mm - - -
1788193912 -17.78° C 100% - 0 mm - - -
1788192916 -17.78° C 100% - 0 mm - - -
1788192018 26.67° C 62% 985.5 hPa 0 mm - - -
1788191117 26.11° C 79% 986.6 hPa 0 mm - - -
1788190218 25.56° C 72% 985.6 hPa 0 mm - - -
1788189317 25.56° C 72% 985.7 hPa 0 mm - - -
1788188418 25.56° C 72% 985.7 hPa 0 mm - - -
1788187521 25° C 70% 986.3 hPa 0.25 mm - - -
1788186617 25° C 70% 985.2 hPa 0.25 mm - - -
1788185717 25° C 70% 985.4 hPa 0 mm - - -
1788184817 25° C 73% 986 hPa 0 mm - - -
1788183917 24.44° C 84% 985.7 hPa 0 mm - - -
1788183017 23.89° C 84% 985.7 hPa 0 mm - - -
1788182118 22.22° C 84% 985.6 hPa 0 mm - - -
1788181222 21.67° C 84% 985.6 hPa 0 mm - - -
1788180318 21.67° C 86% 985.2 hPa 0 mm - - -
1788179422 21.11° C 86% 985.2 hPa 0 mm - - -
1788178525 21.11° C 86% 985.2 hPa 0 mm - - -
1788177621 20.56° C 86% 985.2 hPa 0 mm - - -
1788176724 20.56° C 83% 985.7 hPa 0 mm - - -

* Rain latest hour (hover to see other rain measurements)
** Current wind speed in m/s (hover to see current wind gust speed)